Terminal Aerodrome Forecast
Issued by NWS

Home | Current Version | Previous Version | Text Only | Print | Product List | Glossary On
Versions: 1 2 3 4 5 6 7 8 9 10 11 12 13 14 15 16
272
FTUS45 KVEF 290258 AAA
TAFVGT
TAF AMD
KVGT 290258Z 2903/2924 03014G22KT P6SM FEW120
     FM290800 33015G23KT P6SM SKC
     FM291500 35022G30KT P6SM SKC
     FM292100 02014G22KT P6SM SKC=

USA.gov is the U.S. government's official web portal to all federal, state and local government web resources and services.